Ashburn, Georgia
Current Conditions -  °F | °C
As of 7:55 PM on Saturday 20 Dec 2014 (Local Time) from KCKF Reporting Station
Overcast Overcast  
Wind Chill: 55°   Ceiling: 6000
Heat Index: 55°   Visibility: 10mi
Dew Point: 51°   Wind: 5mph
Humidity: 86%   Direction: 50°NE
Pressure: 30.17"   Gusts: NA
Location:  31.71°N, 83.65°W
Report Text: KCKF 210055Z AUTO 05004KT 10SM OVC060 13/11 A3017 RMK AO2 T01280105
Loading
Personal Weather Stations






























Interactive Weather Map New forecast layout! Learn more

10-Day Weather Forecast

Advertisements
Track Severe Weather on mobile